createdAt,value
2018-07-19T00:01:08.019Z,99.99
2018-07-19T00:11:02.414Z,99.99
2018-07-19T00:20:57.065Z,99.99
2018-07-19T00:30:48.692Z,99.99
2018-07-19T00:40:47.774Z,99.99
2018-07-19T00:50:44.908Z,99.99
2018-07-19T01:00:37.816Z,99.99
2018-07-19T01:10:36.236Z,99.99
2018-07-19T01:20:32.553Z,99.99
2018-07-19T01:30:28.298Z,99.99
2018-07-19T01:40:26.647Z,99.99
2018-07-19T01:50:24.659Z,99.99
2018-07-19T02:00:22.082Z,99.99
2018-07-19T02:10:17.071Z,99.99
2018-07-19T02:20:15.456Z,99.99
2018-07-19T02:30:08.658Z,99.99
2018-07-19T02:40:03.288Z,99.99
2018-07-19T02:50:00.883Z,99.99
2018-07-19T02:59:57.211Z,99.99
2018-07-19T03:09:53.343Z,99.99
2018-07-19T03:19:51.456Z,99.99
2018-07-19T03:29:47.386Z,99.99
2018-07-19T03:39:39.611Z,99.99
2018-07-19T03:49:38.746Z,99.99
2018-07-19T03:59:35.668Z,99.99
2018-07-19T04:09:33.437Z,99.99
2018-07-19T04:19:26.839Z,99.99
2018-07-19T04:29:25.101Z,99.99
2018-07-19T04:39:23.583Z,99.99
2018-07-19T04:49:22.267Z,99.99
2018-07-19T04:59:16.781Z,99.99
2018-07-19T05:09:06.929Z,99.99
2018-07-19T05:19:05.840Z,99.99
2018-07-19T05:29:04.927Z,99.99
2018-07-19T05:39:02.628Z,99.99
2018-07-19T05:49:00.340Z,99.99
2018-07-19T05:58:58.141Z,96.99
2018-07-19T06:08:55.544Z,94.84
2018-07-19T06:18:50.931Z,93.26
2018-07-19T06:28:47.748Z,96.65
2018-07-19T06:38:42.876Z,94.12
2018-07-19T06:48:39.660Z,92.88
2018-07-19T06:58:37.756Z,91.00
2018-07-19T07:08:33.170Z,90.52
2018-07-19T07:18:28.080Z,86.75
2018-07-19T07:28:22.298Z,76.03
2018-07-19T07:38:21.273Z,73.09
2018-07-19T07:48:17.258Z,68.96
2018-07-19T07:58:11.348Z,69.52
2018-07-19T08:08:10.273Z,67.80
2018-07-19T08:18:06.102Z,67.61
2018-07-19T08:28:03.698Z,66.00
2018-07-19T08:37:59.261Z,65.67
2018-07-19T08:47:52.028Z,64.81
2018-07-19T08:57:30.559Z,66.65
2018-07-19T09:07:12.602Z,67.14
2018-07-19T09:16:41.763Z,64.83
2018-07-19T09:26:19.119Z,65.36
2018-07-19T09:35:56.972Z,64.37
2018-07-19T09:45:34.348Z,61.37
2018-07-19T09:55:10.956Z,63.02
2018-07-19T10:04:51.890Z,61.71
2018-07-19T10:14:21.990Z,58.22
2018-07-19T10:23:59.830Z,58.02
2018-07-19T10:33:37.624Z,58.49
2018-07-19T10:43:16.038Z,57.05
2018-07-19T10:52:54.350Z,53.44
2018-07-19T11:02:36.724Z,49.62
2018-07-19T11:12:06.350Z,50.24
2018-07-19T11:21:44.307Z,53.54
2018-07-19T11:31:23.183Z,47.56
2018-07-19T11:41:01.657Z,47.03
2018-07-19T11:50:39.831Z,45.90
2018-07-19T12:00:18.001Z,44.98
2018-07-19T12:09:55.627Z,43.29
2018-07-19T12:19:34.353Z,43.81
2018-07-19T12:29:13.003Z,43.01
2018-07-19T12:38:51.184Z,43.42
2018-07-19T12:48:29.455Z,40.95
2018-07-19T12:58:11.602Z,40.95
2018-07-19T13:07:41.168Z,44.80
2018-07-19T13:17:19.296Z,40.41
2018-07-19T13:27:00.281Z,40.82
2018-07-19T13:36:30.431Z,46.76
2018-07-19T13:46:08.753Z,37.19
2018-07-19T13:55:46.948Z,37.62
2018-07-19T14:05:24.933Z,38.16
2018-07-19T14:15:07.315Z,37.70
2018-07-19T14:24:37.949Z,37.23
2018-07-19T14:34:17.399Z,36.90
2018-07-19T14:43:56.231Z,38.63
2018-07-19T14:53:33.955Z,42.18
2018-07-19T15:03:12.600Z,42.61
2018-07-19T15:12:51.109Z,38.67
2018-07-19T15:22:22.751Z,39.51
2018-07-19T15:32:00.728Z,42.60
2018-07-19T15:41:46.000Z,41.53
2018-07-19T15:51:12.225Z,45.09
2018-07-19T16:00:38.876Z,45.67
2018-07-19T16:10:14.530Z,43.23
2018-07-19T16:19:54.968Z,46.40
2018-07-19T16:29:23.079Z,48.44
2018-07-19T16:39:00.007Z,49.72
2018-07-19T16:48:37.061Z,50.59
2018-07-19T16:58:13.596Z,54.66
2018-07-19T17:07:49.860Z,48.90
2018-07-19T17:17:27.793Z,59.06
2018-07-19T17:27:07.016Z,52.14
2018-07-19T17:36:34.708Z,54.54
2018-07-19T17:46:15.410Z,52.36
2018-07-19T17:55:42.081Z,59.11
2018-07-19T18:05:18.209Z,62.27
2018-07-19T18:14:54.232Z,69.43
2018-07-19T18:24:49.342Z,70.94
2018-07-19T18:34:42.865Z,72.60
2018-07-19T18:44:34.856Z,70.58
2018-07-19T18:54:29.400Z,72.67
2018-07-19T19:04:24.637Z,78.42
2018-07-19T19:14:17.002Z,75.96
2018-07-19T19:24:04.465Z,79.19
2018-07-19T19:33:59.056Z,78.43
2018-07-19T19:43:49.438Z,79.50
2018-07-19T19:53:43.071Z,80.74
2018-07-19T20:03:36.826Z,83.17
2018-07-19T20:13:33.336Z,86.45
2018-07-19T20:23:31.014Z,84.35
2018-07-19T20:33:28.071Z,83.75
2018-07-19T20:43:22.648Z,85.93
2018-07-19T20:53:18.418Z,86.77
2018-07-19T21:03:12.954Z,89.22
2018-07-19T21:13:06.416Z,89.76
2018-07-19T21:23:02.869Z,88.60
2018-07-19T21:32:57.872Z,90.61
2018-07-19T21:42:53.954Z,91.05
2018-07-19T21:52:51.308Z,91.19
2018-07-19T22:02:46.193Z,92.04
2018-07-19T22:12:40.977Z,93.74
2018-07-19T22:22:39.694Z,94.09
2018-07-19T22:32:36.438Z,95.90
2018-07-19T22:42:31.901Z,96.95
2018-07-19T22:52:28.634Z,98.60
2018-07-19T23:02:22.826Z,99.99
2018-07-19T23:12:20.528Z,99.61
2018-07-19T23:22:16.471Z,99.99
2018-07-19T23:32:13.976Z,99.99
2018-07-19T23:42:09.432Z,99.99
2018-07-19T23:52:07.071Z,99.99
